ENBRENML

Guest
Details From ENBR - Bergen Lufthavn Flesland
To ENML - Molde Årø
Flight Number -
Tags Generated
Created
Modified
Stats Distance 157 nm / 292 km
Max Altitude 0 ft / 0 m
Waypoints 2
Social Downloads 5
Likes 0
Share VATSIM

Download

Looking for another format? Having issues loading an existing format? Contact us
Advertisement - Login to hide

Notes

Generated

Route

ENBR ENML

ID Type Via Altitude Latitude Longitude Leg Dist Tot Dist Heading (true) Name
O ENBR APT - 0 ft / 0 m 60.30662˚ 5.21370˚ - 0 nm - -
O ENML APT - 0 ft / 0 m 62.74250˚ 7.24800˚ 157 nm 157 nm 21° / 23° -

Altitude Profile

Advertisement - Login to hide

ENBR

Details ICAO ENBR (BGO)
Name Bergen Lufthavn Flesland
Region Norway
Timezone Europe/Oslo (UTC+2.0)
Stats Elevation 165 ft / 50 m (AMSL)
Location 60.293388° 5.218140°
Runways 1
Magnetic Variation 0.921° E

METAR

ENBR 261350Z 32013KT CAVOK 20/07 Q1029 NOSIG RMK WIND 1200FT 34017KT

Decode

TAF

TAF ENBR 261100Z 2612/2712 34012KT CAVOK BECMG 2618/2621 VRB05KT BECMG 2710/2712 34010KT

Decode

Departure Runways

ID Width Length Bearing (true) Bearing (mag) Surface Threshold Offset Overrun Length
17 148 ft / 45 m 9,793 ft / 2,985 m 170.56° 169.64° Asphalt 886 ft / 270 m 0 ft / 0 m
35 148 ft / 45 m 9,793 ft / 2,985 m 350.57° 349.65° Asphalt 886 ft / 270 m 0 ft / 0 m

ENML

Details ICAO ENML (MOL)
Name Molde Aro
Region Norway
Timezone Europe/Oslo (UTC+2.0)
Stats Elevation 10 ft / 3 m (AMSL)
Location 62.745572° 7.267482°
Runways 1
Magnetic Variation 1.800° E

METAR

ENML 261350Z 23005KT 160V260 9999 FEW010 16/09 Q1033

Decode

TAF

Not found

Destination Runways

ID Width Length Bearing (true) Bearing (mag) Surface Threshold Offset Overrun Length
07 148 ft / 45 m 6,886 ft / 2,099 m 70.96° 69.16° Asphalt 230 ft / 70 m 0 ft / 0 m
25 148 ft / 45 m 6,886 ft / 2,099 m 251.00° 249.20° Asphalt 197 ft / 60 m 0 ft / 0 m

Approach Navaids

Runway Type Ident Frequency Range Bearing (true) Bearing (mag) Slope Elevation
07 Localiser ML 109.75 MHz 18 nm / 33 km 71.02° 69.22° - 4 ft / 1 m (AMSL)
07 Glidescope ML 109.75 MHz 10 nm / 19 km 71.02° 69.22° 3.10° 8 ft / 2 m (AMSL)
25 Localiser ME 109.10 MHz 18 nm / 33 km 256.01° 254.21° - 5 ft / 2 m (AMSL)

Popular Alternatives